Time;durP1;ratioP1;P1;durP2;ratioP2;P2;SDS_P1;SDS_P2;PMS_P1;PMS_P2;Temp;Humidity;BMP_temperature;BMP_pressure;BME280_temperature;BME280_humidity;BME280_pressure;Samples;Min_cycle;Max_cycle;Signal;HPM_P1;HPM_P2
2021/03/17 00:01:15;;;;;;;7.90;1.80;;;0.50;80.60;;;;;;5029448;28;20167;-71
2021/03/17 00:03:59;;;;;;;10.07;2.07;;;0.50;80.80;;;;;;5032487;28;20105;-75
2021/03/17 00:06:44;;;;;;;8.33;2.23;;;0.50;80.90;;;;;;5017858;28;20124;-75
2021/03/17 00:09:28;;;;;;;9.63;2.20;;;0.50;81.00;;;;;;5033437;28;20452;-75
2021/03/17 00:12:12;;;;;;;8.93;2.00;;;0.50;81.00;;;;;;5032514;28;20095;-75
2021/03/17 00:14:56;;;;;;;11.07;2.80;;;0.50;81.30;;;;;;5017722;28;20045;-74
2021/03/17 00:17:40;;;;;;;7.97;2.20;;;0.40;81.20;;;;;;5018280;28;20120;-74
2021/03/17 00:20:26;;;;;;;8.83;2.20;;;0.40;81.20;;;;;;5033306;28;20509;-76
2021/03/17 00:23:10;;;;;;;9.33;2.13;;;0.40;81.20;;;;;;5033581;28;20179;-75
2021/03/17 00:25:55;;;;;;;13.93;2.27;;;0.40;81.40;;;;;;5032838;28;20036;-74
2021/03/17 00:28:39;;;;;;;8.80;2.60;;;0.30;81.40;;;;;;5032651;28;20517;-76
2021/03/17 00:31:23;;;;;;;10.57;2.00;;;0.30;81.50;;;;;;5033023;28;20041;-76
2021/03/17 00:34:07;;;;;;;8.40;1.90;;;0.30;81.70;;;;;;5032582;28;20121;-75
2021/03/17 00:36:51;;;;;;;9.73;2.40;;;0.30;81.90;;;;;;5032709;28;20059;-74
2021/03/17 00:39:35;;;;;;;10.70;2.40;;;0.30;82.10;;;;;;5032928;28;20505;-75
2021/03/17 00:42:21;;;;;;;10.00;2.43;;;0.40;82.20;;;;;;5017418;28;20052;-74
2021/03/17 00:45:06;;;;;;;8.53;2.00;;;0.40;82.40;;;;;;5032651;28;20044;-76
2021/03/17 00:47:50;;;;;;;7.90;2.20;;;0.40;82.60;;;;;;5036362;28;20401;-76
2021/03/17 00:50:18;;;;;;;10.90;2.30;;;0.40;82.70;;;;;;5032120;28;20033;-76
2021/03/17 00:52:44;;;;;;;7.30;1.90;;;0.40;82.80;;;;;;5014735;28;20082;-76
2021/03/17 00:55:11;;;;;;;6.80;1.87;;;0.40;82.80;;;;;;5031940;28;20037;-74
2021/03/17 00:57:56;;;;;;;11.13;2.33;;;0.40;82.80;;;;;;5032498;28;20451;-75
2021/03/17 01:00:22;;;;;;;8.50;2.20;;;0.40;82.90;;;;;;5014578;28;20034;-75
2021/03/17 01:02:49;;;;;;;7.93;2.10;;;0.40;82.90;;;;;;5014285;28;20464;-74
2021/03/17 01:05:15;;;;;;;7.30;1.87;;;0.30;82.80;;;;;;5014275;28;20045;-74
2021/03/17 01:07:41;;;;;;;9.60;2.13;;;0.30;82.70;;;;;;5031908;28;20133;-75
2021/03/17 01:10:14;;;;;;;6.80;1.90;;;0.30;82.80;;;;;;5032108;28;20589;-76
2021/03/17 01:12:41;;;;;;;9.80;2.30;;;0.30;82.80;;;;;;5013703;28;20513;-74
2021/03/17 01:15:09;;;;;;;10.90;1.97;;;0.20;82.80;;;;;;5031192;28;20068;-74
2021/03/17 01:17:35;;;;;;;9.17;2.40;;;0.20;82.80;;;;;;5031912;28;20489;-74
2021/03/17 01:20:00;;;;;;;9.27;2.27;;;0.20;82.90;;;;;;5031387;28;20060;-75
2021/03/17 01:22:26;;;;;;;7.00;2.00;;;0.10;82.80;;;;;;5031923;28;20120;-75
2021/03/17 01:24:52;;;;;;;8.10;1.93;;;0.10;82.90;;;;;;5031247;28;20116;-75
2021/03/17 01:27:17;;;;;;;9.50;2.30;;;0.00;82.80;;;;;;5014114;28;20448;-75
2021/03/17 01:29:43;;;;;;;9.50;2.30;;;0.00;82.80;;;;;;5014360;28;20668;-74
2021/03/17 01:32:09;;;;;;;9.60;2.10;;;-0.10;83.00;;;;;;5030880;28;20505;-76
2021/03/17 01:34:34;;;;;;;14.60;2.67;;;-0.10;83.10;;;;;;5032193;28;20401;-74
2021/03/17 01:37:00;;;;;;;9.10;2.33;;;-0.10;83.20;;;;;;5031455;28;20334;-74
2021/03/17 01:39:25;;;;;;;12.70;2.43;;;-0.10;83.40;;;;;;5031240;28;20041;-75
2021/03/17 01:41:51;;;;;;;8.53;2.67;;;-0.10;83.50;;;;;;5029853;28;20103;-75
2021/03/17 01:44:17;;;;;;;11.87;2.70;;;-0.20;83.50;;;;;;5032228;28;20451;-75
2021/03/17 01:46:42;;;;;;;9.50;3.10;;;-0.20;83.60;;;;;;5031750;28;20494;-76
2021/03/17 01:49:08;;;;;;;9.57;2.50;;;-0.20;83.60;;;;;;5014663;28;20509;-76
2021/03/17 01:51:34;;;;;;;8.83;2.10;;;-0.20;83.70;;;;;;5032495;28;20038;-74
2021/03/17 01:54:02;;;;;;;15.33;2.80;;;-0.20;83.70;;;;;;5017916;28;20084;-75
2021/03/17 01:56:28;;;;;;;10.57;2.10;;;-0.20;83.80;;;;;;5017057;28;20073;-74
2021/03/17 01:58:54;;;;;;;9.57;2.40;;;-0.30;83.90;;;;;;5035816;28;20087;-76
2021/03/17 02:01:20;;;;;;;7.43;2.30;;;-0.30;84.00;;;;;;5034795;28;20026;-76
2021/03/17 02:03:45;;;;;;;12.03;2.50;;;-0.30;84.10;;;;;;5035009;28;20834;-74
2021/03/17 02:06:11;;;;;;;9.00;2.40;;;-0.30;84.20;;;;;;5034953;28;20037;-76
2021/03/17 02:08:40;;;;;;;10.33;2.33;;;-0.30;84.30;;;;;;5031894;28;20037;-75
2021/03/17 02:11:08;;;;;;;9.37;2.07;;;-0.30;84.50;;;;;;5012907;28;20433;-74
2021/03/17 02:13:41;;;;;;;8.53;2.40;;;-0.40;84.60;;;;;;5013486;28;20037;-74
2021/03/17 02:16:22;;;;;;;10.87;2.10;;;-0.30;84.70;;;;;;5030885;28;20045;-69
2021/03/17 02:19:02;;;;;;;10.90;2.40;;;-0.40;84.90;;;;;;5031215;28;20064;-70
2021/03/17 02:21:53;;;;;;;11.02;2.40;;;-0.40;85.00;;;;;;5030192;28;20050;-69
2021/03/17 02:24:50;;;;;;;9.80;2.17;;;-0.40;85.50;;;;;;5031356;28;20128;-70
2021/03/17 02:27:43;;;;;;;12.07;2.23;;;-0.30;85.70;;;;;;5024697;28;20044;-71
2021/03/17 02:30:47;;;;;;;10.87;2.37;;;-0.30;85.70;;;;;;5031005;28;20042;-70
2021/03/17 02:33:31;;;;;;;7.33;2.07;;;-0.20;85.50;;;;;;5030146;28;20529;-70
2021/03/17 02:36:12;;;;;;;9.63;2.53;;;-0.30;85.80;;;;;;5030712;28;20124;-70
2021/03/17 02:38:47;;;;;;;12.27;2.58;;;-0.20;86.00;;;;;;5030440;28;20095;-70
2021/03/17 02:41:21;;;;;;;10.27;2.47;;;-0.30;85.60;;;;;;5012513;28;20112;-70
2021/03/17 02:43:50;;;;;;;12.53;2.83;;;-0.30;85.40;;;;;;5061005;22;20447;-61
2021/03/17 02:46:18;;;;;;;8.30;2.23;;;-0.30;85.50;;;;;;5050696;28;20033;-62
2021/03/17 02:49:09;;;;;;;9.03;2.63;;;-0.40;85.60;;;;;;5050323;28;20047;-62
2021/03/17 02:51:39;;;;;;;12.82;2.67;;;-0.40;86.20;;;;;;5049927;28;20500;-63
2021/03/17 02:54:08;;;;;;;13.40;2.90;;;-0.40;85.90;;;;;;5013179;28;20042;-61
2021/03/17 02:56:39;;;;;;;10.63;2.90;;;-0.50;86.00;;;;;;5030489;28;20455;-62
2021/03/17 02:59:06;;;;;;;14.60;2.97;;;-0.40;86.10;;;;;;5030395;28;20068;-63
2021/03/17 03:01:33;;;;;;;11.77;2.63;;;-0.40;86.20;;;;;;5030344;28;20087;-61
2021/03/17 03:04:03;;;;;;;10.30;3.07;;;-0.40;86.20;;;;;;4996174;28;20041;-61
2021/03/17 03:06:30;;;;;;;14.43;2.80;;;-0.40;86.30;;;;;;5030695;28;20401;-61
2021/03/17 03:08:57;;;;;;;9.30;2.20;;;-0.50;86.20;;;;;;5030453;28;20033;-62
2021/03/17 03:11:22;;;;;;;10.90;2.97;;;-0.50;85.90;;;;;;5029817;28;20034;-61
2021/03/17 03:13:51;;;;;;;13.93;2.87;;;-0.50;86.30;;;;;;5030557;28;20481;-61
2021/03/17 03:16:17;;;;;;;9.43;2.60;;;-0.50;86.50;;;;;;5030055;28;20084;-74
2021/03/17 03:18:48;;;;;;;12.30;2.50;;;-0.60;86.50;;;;;;5012893;28;20049;-74
2021/03/17 03:21:19;;;;;;;8.93;2.50;;;-0.60;86.60;;;;;;5029816;28;20026;-72
2021/03/17 03:23:47;;;;;;;12.07;2.67;;;-0.60;86.50;;;;;;5012694;28;20481;-74
2021/03/17 03:26:16;;;;;;;12.57;2.87;;;-0.60;86.60;;;;;;5030362;28;20116;-75
2021/03/17 03:28:42;;;;;;;7.27;2.40;;;-0.60;86.80;;;;;;5029889;28;20048;-75
2021/03/17 03:31:10;;;;;;;9.03;3.03;;;-0.70;86.70;;;;;;5030096;28;20126;-75
2021/03/17 03:33:35;;;;;;;9.37;2.90;;;-0.60;86.90;;;;;;5029887;28;20040;-75
2021/03/17 03:36:01;;;;;;;8.93;2.53;;;-0.70;86.90;;;;;;5030439;28;20029;-74
2021/03/17 03:38:27;;;;;;;13.13;2.90;;;-0.70;86.90;;;;;;5032164;28;20517;-74
2021/03/17 03:40:53;;;;;;;10.00;2.63;;;-0.70;87.00;;;;;;5033331;28;20378;-75
2021/03/17 03:43:19;;;;;;;11.50;3.20;;;-0.60;87.10;;;;;;5016162;28;20035;-74
2021/03/17 03:45:44;;;;;;;15.13;3.30;;;-0.70;87.00;;;;;;5016624;28;20046;-75
2021/03/17 03:48:12;;;;;;;12.47;3.83;;;-0.70;87.10;;;;;;5033395;28;20037;-74
2021/03/17 03:50:41;;;;;;;16.27;3.50;;;-0.70;87.10;;;;;;5033539;28;20037;-75
2021/03/17 03:53:19;;;;;;;12.83;2.90;;;-0.70;87.10;;;;;;5015538;28;20474;-75
2021/03/17 03:56:01;;;;;;;12.23;2.90;;;-0.80;87.30;;;;;;5038860;28;20056;-74
2021/03/17 03:58:41;;;;;;;16.60;3.47;;;-0.80;87.30;;;;;;5035444;28;20049;-75
2021/03/17 04:01:38;;;;;;;13.57;3.42;;;-0.80;87.40;;;;;;5053062;28;20037;-75
2021/03/17 04:04:16;;;;;;;11.67;3.37;;;-0.80;87.60;;;;;;5053116;28;20148;-72
2021/03/17 04:06:46;;;;;;;16.57;3.80;;;-0.80;87.60;;;;;;5036032;28;20193;-75
2021/03/17 04:09:14;;;;;;;12.27;2.97;;;-0.80;87.70;;;;;;5053568;28;20044;-74
2021/03/17 04:11:41;;;;;;;16.73;3.13;;;-0.80;87.70;;;;;;5035243;28;20485;-75
2021/03/17 04:14:09;;;;;;;13.53;3.13;;;-0.90;87.80;;;;;;5053381;28;20036;-74
2021/03/17 04:16:36;;;;;;;14.03;3.13;;;-0.90;87.90;;;;;;5035071;28;20041;-75
2021/03/17 04:19:03;;;;;;;15.87;4.87;;;-0.90;87.80;;;;;;5053258;28;20035;-74
2021/03/17 04:21:31;;;;;;;11.67;2.73;;;-0.90;87.90;;;;;;5018586;28;20116;-74
2021/03/17 04:24:02;;;;;;;16.37;3.57;;;-0.90;87.90;;;;;;5035445;28;20439;-75
2021/03/17 04:26:31;;;;;;;9.23;3.10;;;-0.90;87.90;;;;;;5035345;28;20041;-74
2021/03/17 04:28:57;;;;;;;12.83;3.00;;;-1.00;88.00;;;;;;5034873;28;20033;-74
2021/03/17 04:31:24;;;;;;;15.93;3.43;;;-1.00;88.00;;;;;;5053152;28;20033;-75
2021/03/17 04:33:51;;;;;;;10.33;3.00;;;-0.90;88.20;;;;;;5018172;28;20195;-74
2021/03/17 04:36:18;;;;;;;11.63;3.07;;;-0.90;88.20;;;;;;5053100;28;20201;-75
2021/03/17 04:38:44;;;;;;;11.27;3.33;;;-1.00;88.30;;;;;;5018694;28;20061;-75
2021/03/17 04:41:11;;;;;;;9.03;2.87;;;-0.90;88.30;;;;;;5052369;28;20040;-74
2021/03/17 04:43:38;;;;;;;8.73;2.93;;;-0.90;88.40;;;;;;5052836;28;20045;-74
2021/03/17 04:46:05;;;;;;;11.43;3.10;;;-0.90;88.40;;;;;;5052643;28;20039;-75
2021/03/17 04:48:33;;;;;;;16.60;3.33;;;-0.90;88.40;;;;;;5052587;28;20508;-74
2021/03/17 04:51:00;;;;;;;11.27;3.10;;;-1.00;88.30;;;;;;5034419;28;20061;-74
2021/03/17 04:53:26;;;;;;;15.07;3.30;;;-1.00;88.40;;;;;;5034471;28;20033;-73
2021/03/17 04:55:52;;;;;;;13.27;3.83;;;-1.00;88.50;;;;;;5035104;28;20044;-74
2021/03/17 04:58:22;;;;;;;13.80;3.40;;;-1.00;88.60;;;;;;5034324;28;20123;-74
2021/03/17 05:00:49;;;;;;;17.92;3.97;;;-1.00;88.80;;;;;;5052379;28;20100;-74
2021/03/17 05:03:17;;;;;;;20.50;9.87;;;-1.00;89.00;;;;;;5051931;28;20560;-74
2021/03/17 05:05:44;;;;;;;19.33;7.80;;;-1.00;88.90;;;;;;5052524;28;20472;-75
2021/03/17 05:08:10;;;;;;;16.50;5.33;;;-1.00;88.90;;;;;;5052409;28;20432;-74
2021/03/17 05:10:39;;;;;;;11.97;4.77;;;-1.00;88.80;;;;;;5033896;28;20489;-74
2021/03/17 05:13:11;;;;;;;13.87;5.20;;;-1.00;88.80;;;;;;5052339;28;20037;-74
2021/03/17 05:15:38;;;;;;;15.23;4.73;;;-1.00;89.30;;;;;;5051913;28;20067;-74
2021/03/17 05:18:06;;;;;;;16.07;5.40;;;-1.10;88.90;;;;;;5052252;28;20033;-74
2021/03/17 05:20:32;;;;;;;15.77;5.10;;;-1.10;89.00;;;;;;5050811;28;20505;-74
2021/03/17 05:22:59;;;;;;;14.73;5.07;;;-1.10;89.00;;;;;;5032456;28;20091;-74
2021/03/17 05:25:27;;;;;;;12.63;5.20;;;-1.10;89.20;;;;;;5051136;28;20036;-75
2021/03/17 05:28:04;;;;;;;17.43;5.53;;;-1.10;89.40;;;;;;5033225;28;20048;-73
2021/03/17 05:30:32;;;;;;;17.43;6.50;;;-1.10;89.30;;;;;;5051430;28;20095;-74
2021/03/17 05:33:00;;;;;;;14.17;6.17;;;-1.10;89.30;;;;;;5050307;28;20063;-74
2021/03/17 05:35:26;;;;;;;15.37;6.40;;;-1.10;89.40;;;;;;5033784;28;20040;-74
2021/03/17 05:37:52;;;;;;;15.17;6.43;;;-1.10;89.30;;;;;;5017273;28;20041;-75
2021/03/17 05:40:17;;;;;;;11.53;5.80;;;-1.10;89.50;;;;;;5051112;28;20647;-74
2021/03/17 05:42:44;;;;;;;18.70;6.87;;;-1.10;89.60;;;;;;5051623;28;20515;-74
2021/03/17 05:45:18;;;;;;;15.17;5.40;;;-1.10;89.80;;;;;;5033230;28;20063;-74
2021/03/17 05:47:45;;;;;;;14.73;5.80;;;-1.00;90.00;;;;;;5051674;28;20119;-75
2021/03/17 05:50:18;;;;;;;19.53;5.60;;;-1.00;90.00;;;;;;5051020;28;20037;-74
2021/03/17 05:52:44;;;;;;;14.93;5.20;;;-1.00;90.10;;;;;;5051263;28;20037;-74
2021/03/17 05:55:12;;;;;;;12.17;4.77;;;-0.90;90.30;;;;;;5033583;28;20044;-74
2021/03/17 05:57:39;;;;;;;14.90;5.57;;;-0.80;90.40;;;;;;5050949;28;20029;-75
2021/03/17 06:00:07;;;;;;;12.73;5.33;;;-0.80;90.40;;;;;;5050740;28;20029;-74
2021/03/17 06:02:35;;;;;;;12.30;4.77;;;-0.60;90.40;;;;;;5050687;28;20089;-74
2021/03/17 06:05:04;;;;;;;15.47;5.20;;;-0.60;90.40;;;;;;5051363;28;20037;-74
2021/03/17 06:07:40;;;;;;;14.23;5.00;;;-0.50;90.40;;;;;;5051273;28;20079;-74
2021/03/17 06:10:07;;;;;;;13.57;4.47;;;-0.40;90.40;;;;;;5050849;28;20086;-74
2021/03/17 06:12:35;;;;;;;15.73;4.37;;;-0.40;90.40;;;;;;5016957;28;20061;-74
2021/03/17 06:15:02;;;;;;;11.53;4.43;;;-0.20;90.40;;;;;;5050422;28;20048;-75
2021/03/17 06:17:30;;;;;;;12.73;4.60;;;-0.20;90.50;;;;;;5051164;28;20045;-74
2021/03/17 06:19:59;;;;;;;11.17;5.10;;;-0.10;90.40;;;;;;5050595;28;20143;-74
2021/03/17 06:22:25;;;;;;;13.33;5.57;;;0.00;90.30;;;;;;5033181;28;20040;-74
2021/03/17 06:24:51;;;;;;;21.63;10.00;;;-0.10;90.20;;;;;;5066785;28;20095;-74
2021/03/17 06:27:17;;;;;;;40.37;22.53;;;0.00;90.40;;;;;;5050651;28;20747;-74
2021/03/17 06:29:43;;;;;;;21.07;9.00;;;0.10;90.60;;;;;;5033503;28;20040;-75
2021/03/17 06:32:09;;;;;;;12.73;5.67;;;0.20;90.80;;;;;;5059455;28;20127;-74
2021/03/17 06:34:48;;;;;;;25.60;11.40;;;0.30;90.90;;;;;;5053115;28;20036;-74
2021/03/17 06:37:14;;;;;;;17.63;7.50;;;0.40;90.90;;;;;;5070525;28;20068;-74
2021/03/17 06:39:39;;;;;;;23.80;8.77;;;0.60;91.00;;;;;;5071073;28;20063;-74
2021/03/17 06:42:06;;;;;;;15.33;7.17;;;0.70;91.00;;;;;;5070945;28;20039;-74
2021/03/17 06:44:31;;;;;;;11.23;5.00;;;0.90;91.00;;;;;;5036095;28;20048;-74
2021/03/17 06:47:20;;;;;;;13.17;4.67;;;1.00;91.00;;;;;;5071201;28;20039;-74
2021/03/17 06:49:50;;;;;;;11.37;3.90;;;1.20;90.90;;;;;;5036823;28;20082;-74
2021/03/17 06:52:32;;;;;;;13.18;5.20;;;1.30;90.80;;;;;;5070897;28;20032;-74
2021/03/17 06:55:16;;;;;;;16.40;6.10;;;1.40;90.80;;;;;;5071016;28;20036;-74
2021/03/17 06:57:47;;;;;;;13.30;5.50;;;1.50;90.70;;;;;;5070735;28;20045;-74
2021/03/17 07:00:35;;;;;;;13.63;6.20;;;1.60;90.90;;;;;;5070942;28;20040;-61
2021/03/17 07:03:14;;;;;;;12.93;5.93;;;1.80;91.10;;;;;;5070336;28;20045;-61
2021/03/17 07:05:46;;;;;;;11.93;5.30;;;2.00;91.10;;;;;;5071129;28;20059;-61
2021/03/17 07:08:29;;;;;;;13.03;5.30;;;2.20;91.10;;;;;;5070706;28;20040;-62
2021/03/17 07:10:57;;;;;;;12.80;4.97;;;2.30;91.00;;;;;;5070691;28;20121;-61
2021/03/17 07:13:25;;;;;;;11.47;5.30;;;2.50;90.90;;;;;;5072768;28;20370;-61
2021/03/17 07:15:56;;;;;;;15.40;6.20;;;2.60;90.90;;;;;;5075108;28;20037;-62
2021/03/17 07:18:24;;;;;;;17.80;7.00;;;2.70;90.80;;;;;;5074701;28;20500;-61
2021/03/17 07:20:53;;;;;;;21.97;9.97;;;2.80;90.70;;;;;;5040116;28;20123;-62
2021/03/17 07:23:41;;;;;;;17.13;6.27;;;2.90;90.50;;;;;;5074250;28;20158;-61
2021/03/17 07:26:16;;;;;;;19.73;8.57;;;3.00;90.50;;;;;;5074895;28;20173;-62
2021/03/17 07:28:49;;;;;;;26.37;13.23;;;3.10;90.50;;;;;;5074427;28;20040;-62
2021/03/17 07:31:17;;;;;;;26.17;13.70;;;3.30;90.40;;;;;;5074445;28;20036;-61
2021/03/17 07:33:43;;;;;;;30.30;15.07;;;3.40;90.40;;;;;;5074172;28;20112;-61
2021/03/17 07:36:10;;;;;;;28.13;15.13;;;3.60;90.60;;;;;;5074661;28;20025;-61
2021/03/17 07:38:36;;;;;;;41.07;22.53;;;3.70;90.60;;;;;;5073983;28;20048;-62
2021/03/17 07:41:03;;;;;;;25.80;12.77;;;3.80;90.40;;;;;;5056415;28;20407;-61
2021/03/17 07:43:30;;;;;;;12.33;4.73;;;3.90;90.10;;;;;;5056182;28;20041;-61
2021/03/17 07:45:56;;;;;;;12.27;4.27;;;3.90;89.60;;;;;;5074133;28;20044;-61
2021/03/17 07:48:26;;;;;;;13.33;3.90;;;3.90;89.20;;;;;;5057178;28;20048;-61
2021/03/17 07:50:53;;;;;;;13.20;3.93;;;3.90;88.90;;;;;;5072127;28;20122;-62
2021/03/17 07:53:26;;;;;;;12.90;4.57;;;3.90;89.00;;;;;;5072888;28;20044;-62
2021/03/17 07:55:57;;;;;;;14.43;4.17;;;3.90;88.60;;;;;;5072594;28;20078;-63
2021/03/17 07:58:23;;;;;;;12.18;4.03;;;4.00;89.20;;;;;;5054945;28;20036;-61
2021/03/17 08:00:50;;;;;;;13.30;3.80;;;4.10;89.30;;;;;;5072357;28;20500;-61
2021/03/17 08:03:16;;;;;;;13.83;3.77;;;4.10;89.10;;;;;;5072574;28;20036;-61
2021/03/17 08:05:43;;;;;;;15.00;3.90;;;4.20;88.80;;;;;;5072752;28;20462;-62
2021/03/17 08:08:09;;;;;;;12.80;4.30;;;4.30;88.40;;;;;;5072451;28;20037;-61
2021/03/17 08:10:41;;;;;;;10.43;4.10;;;4.30;87.60;;;;;;5072425;28;20040;-62
2021/03/17 08:13:08;;;;;;;12.67;4.27;;;4.20;87.80;;;;;;5072791;28;20032;-61
2021/03/17 08:15:36;;;;;;;10.53;4.40;;;4.30;87.70;;;;;;5071702;28;20032;-61
2021/03/17 08:18:02;;;;;;;11.00;3.83;;;4.30;88.20;;;;;;5054757;28;20434;-61
2021/03/17 08:20:28;;;;;;;14.87;4.00;;;4.40;88.40;;;;;;5054307;28;20128;-61
2021/03/17 08:22:58;;;;;;;10.80;3.63;;;4.60;88.20;;;;;;5054502;28;20040;-61
2021/03/17 08:25:41;;;;;;;15.27;4.40;;;4.80;88.60;;;;;;5072309;28;20063;-61
2021/03/17 08:28:21;;;;;;;14.00;4.10;;;4.90;88.40;;;;;;5053939;28;20382;-62
2021/03/17 08:30:49;;;;;;;12.38;3.80;;;5.10;87.80;;;;;;5053788;28;20041;-62
2021/03/17 08:33:37;;;;;;;10.27;3.87;;;5.20;87.30;;;;;;5053182;28;20518;-62
2021/03/17 08:36:08;;;;;;;11.80;4.37;;;5.20;85.90;;;;;;5036830;28;20033;-62
2021/03/17 08:38:55;;;;;;;13.57;4.40;;;5.20;86.40;;;;;;5071563;28;20143;-62
2021/03/17 08:41:46;;;;;;;13.67;4.27;;;5.30;86.80;;;;;;5071050;28;20036;-61
2021/03/17 08:44:14;;;;;;;13.03;4.40;;;5.40;86.70;;;;;;5060278;28;20090;-65
2021/03/17 08:46:41;;;;;;;10.37;3.90;;;5.50;85.50;;;;;;5071596;28;20103;-65
2021/03/17 08:49:08;;;;;;;11.97;4.03;;;5.60;86.20;;;;;;5053821;28;20464;-65
2021/03/17 08:51:46;;;;;;;12.43;4.10;;;5.70;86.20;;;;;;5070920;28;20063;-66
2021/03/17 08:54:31;;;;;;;14.33;4.30;;;5.80;85.90;;;;;;5071332;28;20039;-65
2021/03/17 08:57:17;;;;;;;13.40;4.23;;;5.90;85.20;;;;;;5071006;28;20481;-66
2021/03/17 08:59:45;;;;;;;11.50;4.40;;;6.00;85.50;;;;;;5052705;28;20052;-65
2021/03/17 09:02:26;;;;;;;12.60;3.93;;;6.20;85.60;;;;;;5053259;28;20036;-65
2021/03/17 09:04:59;;;;;;;;;;;6.40;86.00;;;;;;5053790;28;20040;-65
2021/03/17 09:07:28;;;;;;;14.73;4.10;;;6.80;86.70;;;;;;5072070;28;19908;-65
2021/03/17 09:09:56;;;;;;;10.80;4.10;;;7.40;87.50;;;;;;5072425;28;20025;-66
2021/03/17 09:12:25;;;;;;;11.40;3.83;;;8.20;86.90;;;;;;5072005;28;20028;-66
2021/03/17 09:14:53;;;;;;;12.70;4.33;;;9.10;86.40;;;;;;5072083;28;20120;-66
2021/03/17 09:17:27;;;;;;;12.68;4.40;;;9.90;84.50;;;;;;5071947;28;20029;-67
2021/03/17 09:20:02;;;;;;;10.23;3.95;;;10.50;82.60;;;;;;5053939;28;20025;-66
2021/03/17 09:23:00;;;;;;;9.23;3.92;;;11.80;82.40;;;;;;5053572;28;20078;-66
2021/03/17 09:25:35;;;;;;;11.88;4.40;;;13.20;79.90;;;;;;5071873;28;20096;-67
2021/03/17 09:28:24;;;;;;;12.02;5.10;;;13.80;77.00;;;;;;5053751;28;20449;-67
2021/03/17 09:30:52;;;;;;;11.82;4.30;;;14.40;75.90;;;;;;5071418;28;20115;-67
2021/03/17 09:33:40;;;;;;;11.52;4.50;;;15.20;72.80;;;;;;5054751;28;20037;-67
2021/03/17 09:36:33;;;;;;;12.07;4.30;;;15.10;69.80;;;;;;5072210;28;20024;-67
2021/03/17 09:39:02;;;;;;;9.90;4.03;;;14.50;67.20;;;;;;5068818;28;20045;-67
2021/03/17 09:41:33;;;;;;;11.68;5.15;;;13.90;66.90;;;;;;5054520;28;20087;-66
2021/03/17 09:44:03;;;;;;;12.18;4.75;;;13.60;67.10;;;;;;5053749;28;20037;-66
2021/03/17 09:46:42;;;;;;;11.77;4.43;;;13.50;67.10;;;;;;5071250;28;20029;-66
2021/03/17 09:49:16;;;;;;;11.45;5.25;;;13.30;65.70;;;;;;5071004;28;20500;-67
2021/03/17 09:51:44;;;;;;;10.93;4.28;;;13.40;66.80;;;;;;5052747;28;20458;-62
2021/03/17 09:54:13;;;;;;;10.20;3.97;;;13.60;66.60;;;;;;5069490;28;20435;-63
2021/03/17 09:56:47;;;;;;;9.43;4.38;;;14.00;65.80;;;;;;5070997;28;20074;-63
2021/03/17 09:59:40;;;;;;;9.38;4.40;;;14.60;65.20;;;;;;5070893;28;20106;-62
2021/03/17 10:02:14;;;;;;;9.40;4.47;;;14.90;63.00;;;;;;5053388;28;20411;-62
2021/03/17 10:04:47;;;;;;;12.65;4.55;;;15.40;62.60;;;;;;5070629;28;20493;-62
2021/03/17 10:07:23;;;;;;;9.32;4.40;;;16.50;62.90;;;;;;5070967;28;20039;-62
2021/03/17 10:09:51;;;;;;;10.75;4.70;;;17.30;59.70;;;;;;5070561;28;20067;-62
2021/03/17 10:12:21;;;;;;;11.43;4.30;;;18.10;58.70;;;;;;5070622;28;20036;-62
2021/03/17 10:14:54;;;;;;;8.82;3.90;;;17.70;54.50;;;;;;5070388;28;20537;-60
2021/03/17 10:17:22;;;;;;;11.18;4.82;;;16.80;53.50;;;;;;5070403;28;20523;-61
2021/03/17 10:19:59;;;;;;;12.60;4.50;;;15.80;54.00;;;;;;5052303;28;20557;-60
2021/03/17 10:22:28;;;;;;;12.20;4.88;;;15.00;54.60;;;;;;5052697;28;20116;-62
2021/03/17 10:24:59;;;;;;;10.45;4.15;;;14.60;55.50;;;;;;5052482;28;20040;-65
2021/03/17 10:27:31;;;;;;;9.93;4.25;;;14.30;56.00;;;;;;5070904;28;20039;-60
2021/03/17 10:30:04;;;;;;;13.38;4.45;;;14.40;56.90;;;;;;5052411;28;20048;-61
2021/03/17 10:32:30;;;;;;;12.63;4.70;;;15.00;57.20;;;;;;5070684;28;20113;-61
2021/03/17 10:34:56;;;;;;;10.60;4.40;;;15.30;55.60;;;;;;5070423;28;20486;-60
2021/03/17 10:37:23;;;;;;;10.73;4.97;;;15.90;56.60;;;;;;5070275;28;20151;-61
2021/03/17 10:39:50;;;;;;;11.00;5.15;;;16.90;57.00;;;;;;5036214;28;20044;-61
2021/03/17 10:42:20;;;;;;;12.70;5.60;;;17.90;55.10;;;;;;5069862;28;20484;-61
2021/03/17 10:45:15;;;;;;;10.65;4.22;;;18.80;53.10;;;;;;5070303;28;20051;-66
2021/03/17 10:47:42;;;;;;;9.77;4.38;;;19.00;50.00;;;;;;5068980;28;20200;-66
2021/03/17 10:50:14;;;;;;;11.88;4.63;;;18.70;49.60;;;;;;5052213;28;20105;-67
2021/03/17 10:52:43;;;;;;;11.88;4.97;;;18.50;49.30;;;;;;5035867;28;20492;-66
2021/03/17 10:55:12;;;;;;;10.40;4.80;;;18.30;48.90;;;;;;5070229;28;20029;-66
2021/03/17 10:57:38;;;;;;;11.80;4.30;;;18.40;48.90;;;;;;5069841;28;20044;-68
2021/03/17 11:00:20;;;;;;;10.75;4.70;;;18.80;48.50;;;;;;5070249;28;20247;-68
2021/03/17 11:02:46;;;;;;;9.52;4.18;;;19.10;47.20;;;;;;5069667;28;20040;-69
2021/03/17 11:05:24;;;;;;;8.10;3.90;;;19.70;46.90;;;;;;5052280;28;20086;-68
2021/03/17 11:08:06;;;;;;;9.90;4.40;;;20.00;46.20;;;;;;5069781;28;20029;-65
2021/03/17 11:10:48;;;;;;;9.52;4.15;;;20.10;44.40;;;;;;5052099;28;20033;-67
2021/03/17 11:13:17;;;;;;;9.05;4.05;;;20.40;44.30;;;;;;5069886;28;20040;-66
2021/03/17 11:15:48;;;;;;;9.82;4.10;;;20.60;43.80;;;;;;5070137;28;20405;-67
2021/03/17 11:18:35;;;;;;;9.57;4.30;;;20.80;43.10;;;;;;5069557;28;20447;-67
2021/03/17 11:21:08;;;;;;;9.15;3.97;;;21.10;42.10;;;;;;5069005;28;20073;-67
2021/03/17 11:23:37;;;;;;;10.95;3.75;;;21.00;41.70;;;;;;5063731;28;20048;-65
2021/03/17 11:26:17;;;;;;;10.07;4.45;;;21.20;42.10;;;;;;5051519;28;20047;-65
2021/03/17 11:28:43;;;;;;;10.13;4.00;;;21.10;40.90;;;;;;5067060;28;20040;-65
2021/03/17 11:31:11;;;;;;;11.90;4.32;;;20.20;39.70;;;;;;5034378;28;20177;-62
2021/03/17 11:33:38;;;;;;;8.65;3.65;;;18.70;39.00;;;;;;5072014;28;20048;-63
2021/03/17 11:36:06;;;;;;;8.25;3.72;;;17.20;39.50;;;;;;5069469;28;20572;-63
2021/03/17 11:38:32;;;;;;;7.10;3.05;;;15.80;40.20;;;;;;5069452;28;20385;-62
2021/03/17 11:40:59;;;;;;;7.35;3.03;;;14.80;41.40;;;;;;5051735;28;20036;-61
2021/03/17 11:43:30;;;;;;;8.45;3.25;;;14.10;42.70;;;;;;5069861;28;20040;-62
2021/03/17 11:45:58;;;;;;;8.02;3.10;;;13.60;43.50;;;;;;5066941;28;20037;-62
2021/03/17 11:48:27;;;;;;;8.77;3.65;;;13.30;44.70;;;;;;5068881;28;20416;-63
2021/03/17 11:50:55;;;;;;;8.10;3.40;;;13.40;45.60;;;;;;5069524;28;20078;-63
2021/03/17 11:53:21;;;;;;;8.88;3.42;;;14.10;47.30;;;;;;5051946;28;20515;-62
2021/03/17 11:55:49;;;;;;;9.02;3.83;;;15.20;49.60;;;;;;5069354;28;20045;-62
2021/03/17 11:58:15;;;;;;;7.85;4.00;;;16.60;48.20;;;;;;5068673;28;20066;-62
2021/03/17 12:00:41;;;;;;;8.43;3.33;;;18.20;46.20;;;;;;5072904;28;20036;-61
2021/03/17 12:03:07;;;;;;;8.32;3.38;;;19.40;44.30;;;;;;5054728;28;20572;-61
2021/03/17 12:05:34;;;;;;;7.78;3.30;;;20.30;42.70;;;;;;5073215;28;20055;-61
2021/03/17 12:08:01;;;;;;;7.72;3.20;;;20.80;41.40;;;;;;5038361;28;20062;-62
2021/03/17 12:10:27;;;;;;;6.63;3.13;;;21.40;41.20;;;;;;5072585;28;20048;-62
2021/03/17 12:12:54;;;;;;;7.35;3.50;;;22.10;40.40;;;;;;5054507;28;20040;-62
2021/03/17 12:15:22;;;;;;;6.05;2.75;;;22.40;39.10;;;;;;5072615;28;20033;-62
2021/03/17 12:17:50;;;;;;;5.90;2.30;;;22.70;37.60;;;;;;5072901;28;20033;-60
2021/03/17 12:20:17;;;;;;;6.13;2.17;;;22.50;35.50;;;;;;5072136;28;20519;-60
2021/03/17 12:22:43;;;;;;;6.55;2.78;;;22.40;35.90;;;;;;5072677;28;20091;-60
2021/03/17 12:25:11;;;;;;;7.72;2.70;;;22.50;34.90;;;;;;5072785;28;20515;-63
2021/03/17 12:27:40;;;;;;;5.32;2.50;;;22.50;34.70;;;;;;5072272;28;20036;-60
2021/03/17 12:30:15;;;;;;;6.03;2.78;;;22.60;34.10;;;;;;5072655;28;20512;-60
2021/03/17 12:32:42;;;;;;;6.45;3.30;;;22.30;32.70;;;;;;5071404;28;20035;-63
2021/03/17 12:35:10;;;;;;;7.15;2.70;;;22.00;32.10;;;;;;5069814;28;20048;-62
2021/03/17 12:37:37;;;;;;;5.72;2.70;;;21.60;31.90;;;;;;5070329;28;20416;-63
2021/03/17 12:40:05;;;;;;;7.10;3.00;;;21.70;33.00;;;;;;5069710;28;20071;-63
2021/03/17 12:42:31;;;;;;;6.43;2.85;;;22.00;33.20;;;;;;5035848;28;20106;-63
2021/03/17 12:44:57;;;;;;;7.57;2.70;;;22.50;33.20;;;;;;5051861;28;20033;-63
2021/03/17 12:47:23;;;;;;;6.93;2.83;;;23.00;33.80;;;;;;5070565;28;20554;-63
2021/03/17 12:49:49;;;;;;;6.32;2.60;;;23.40;33.80;;;;;;5052358;28;20063;-63
2021/03/17 12:52:14;;;;;;;5.53;2.25;;;23.60;33.20;;;;;;5071531;28;20488;-63
2021/03/17 12:54:41;;;;;;;4.20;2.00;;;23.70;32.30;;;;;;5072871;28;20036;-63
2021/03/17 12:57:08;;;;;;;5.32;2.10;;;23.10;30.60;;;;;;5054518;28;20033;-62
2021/03/17 12:59:35;;;;;;;4.95;2.10;;;21.50;28.90;;;;;;5072984;28;20033;-62
2021/03/17 13:02:01;;;;;;;6.15;2.60;;;19.40;29.10;;;;;;5054126;28;20111;-62
2021/03/17 13:04:27;;;;;;;6.57;2.25;;;17.60;30.00;;;;;;5072608;28;20040;-64